createdAt,value
2022-08-31T00:00:28.997Z,102287.22
2022-08-31T00:03:31.037Z,102286.44
2022-08-31T00:06:34.206Z,102289.16
2022-08-31T00:09:36.226Z,102281.13
2022-08-31T00:12:38.249Z,102286.59
2022-08-31T00:15:40.865Z,102292.81
2022-08-31T00:18:42.868Z,102276.03
2022-08-31T00:21:45.000Z,102276.13
2022-08-31T00:24:47.014Z,102281.53
2022-08-31T00:27:49.009Z,102278.88
2022-08-31T00:30:51.091Z,102278.06
2022-08-31T00:33:53.115Z,102271.88
2022-08-31T00:36:55.240Z,102279.06
2022-08-31T00:39:57.356Z,102276.53
2022-08-31T00:43:00.600Z,102283.72
2022-08-31T00:46:03.269Z,102286.63
2022-08-31T00:49:10.464Z,102280.44
2022-08-31T00:52:38.340Z,102286.84
2022-08-31T00:55:40.685Z,102277.13
2022-08-31T00:58:45.374Z,102278.16
2022-08-31T01:01:56.386Z,102284.31
2022-08-31T01:04:58.440Z,102275.50
2022-08-31T01:08:01.831Z,102284.38
2022-08-31T01:11:03.908Z,102288.03
2022-08-31T01:14:07.089Z,102283.66
2022-08-31T01:17:09.171Z,102289.72
2022-08-31T01:20:27.597Z,102279.13
2022-08-31T01:23:33.836Z,102287.13
2022-08-31T01:26:37.969Z,102280.13
2022-08-31T01:29:39.874Z,102280.16
2022-08-31T01:32:41.815Z,102283.69
2022-08-31T01:35:45.284Z,102282.84
2022-08-31T01:38:52.985Z,102285.50
2022-08-31T01:41:55.850Z,102288.22
2022-08-31T01:44:57.877Z,102283.03
2022-08-31T01:47:59.926Z,102286.53
2022-08-31T01:51:03.157Z,102287.53
2022-08-31T01:54:05.842Z,102290.19
2022-08-31T01:57:07.887Z,102285.75
2022-08-31T02:00:43.248Z,102277.09
2022-08-31T02:03:45.384Z,102277.97
2022-08-31T02:06:51.199Z,102283.38
2022-08-31T02:09:54.580Z,102286.84
2022-08-31T02:12:56.744Z,102287.81
2022-08-31T02:16:05.773Z,102275.53
2022-08-31T02:19:08.477Z,102284.41
2022-08-31T02:22:10.566Z,102282.72
2022-08-31T02:25:12.869Z,102282.81
2022-08-31T02:28:15.028Z,102283.69
2022-08-31T02:31:17.123Z,102280.19
2022-08-31T02:34:27.055Z,102287.22
2022-08-31T02:37:30.310Z,102286.34
2022-08-31T02:40:35.258Z,102284.56
2022-08-31T02:43:37.394Z,102288.09
2022-08-31T02:46:39.567Z,102283.66
2022-08-31T02:50:20.355Z,102288.16
2022-08-31T02:53:23.432Z,102281.91
2022-08-31T02:56:25.982Z,102280.19
2022-08-31T02:59:29.429Z,102281.16
2022-08-31T03:02:33.090Z,102281.25
2022-08-31T03:05:35.393Z,102290.06
2022-08-31T03:08:37.396Z,102288.34
2022-08-31T03:11:39.445Z,102292.84
2022-08-31T03:14:41.533Z,102293.00
2022-08-31T03:17:43.553Z,102284.16
2022-08-31T03:20:45.640Z,102292.16
2022-08-31T03:23:48.836Z,102300.19
2022-08-31T03:26:50.932Z,102297.69
2022-08-31T03:29:53.210Z,102295.94
2022-08-31T03:33:02.522Z,102296.78
2022-08-31T03:36:06.356Z,102284.41
2022-08-31T03:39:08.371Z,102284.47
2022-08-31T03:42:10.412Z,102294.16
2022-08-31T03:45:13.271Z,102296.03
2022-08-31T03:48:16.351Z,102300.44
2022-08-31T03:51:20.511Z,102296.09
2022-08-31T03:54:22.996Z,102302.19
2022-08-31T03:57:25.658Z,102303.97
2022-08-31T04:00:28.952Z,102301.31
2022-08-31T04:03:36.764Z,102313.72
2022-08-31T04:06:57.154Z,102305.78
2022-08-31T04:10:17.905Z,102302.19
2022-08-31T04:13:40.664Z,102311.06
2022-08-31T04:16:48.352Z,102314.63
2022-08-31T04:20:17.257Z,102305.78
2022-08-31T04:23:23.510Z,102306.63
2022-08-31T04:26:37.872Z,102313.69
2022-08-31T04:29:41.125Z,102312.84
2022-08-31T04:32:43.121Z,102312.81
2022-08-31T04:35:45.188Z,102316.28
2022-08-31T04:38:49.845Z,102318.06
2022-08-31T04:41:52.301Z,102319.88
2022-08-31T04:44:55.169Z,102321.69
2022-08-31T04:47:57.282Z,102318.16
2022-08-31T04:51:05.537Z,102324.34
2022-08-31T04:54:10.902Z,102321.63
2022-08-31T04:57:12.958Z,102329.59
2022-08-31T05:00:15.569Z,102333.97
2022-08-31T05:03:55.423Z,102331.22
2022-08-31T05:06:57.497Z,102335.63
2022-08-31T05:10:00.828Z,102332.16
2022-08-31T05:13:03.177Z,102335.81
2022-08-31T05:16:10.102Z,102342.88
2022-08-31T05:19:12.223Z,102342.00
2022-08-31T05:22:14.294Z,102337.56
2022-08-31T05:25:18.914Z,102335.78
2022-08-31T05:28:20.950Z,102337.50
2022-08-31T05:31:23.584Z,102346.34
2022-08-31T05:34:26.652Z,102346.38
2022-08-31T05:37:30.178Z,102349.09
2022-08-31T05:40:32.617Z,102348.19
2022-08-31T05:43:35.021Z,102350.81
2022-08-31T05:46:37.905Z,102355.19
2022-08-31T05:49:43.018Z,102357.81
2022-08-31T05:52:48.967Z,102355.91
2022-08-31T05:55:58.611Z,102351.38
2022-08-31T05:59:00.616Z,102353.13
2022-08-31T06:02:03.026Z,102352.06
2022-08-31T06:05:08.826Z,102344.75
2022-08-31T06:08:15.259Z,102355.09
2022-08-31T06:11:23.752Z,102357.66
2022-08-31T06:14:27.652Z,102354.84
2022-08-31T06:17:32.093Z,102353.84
2022-08-31T06:20:35.187Z,102359.78
2022-08-31T06:23:37.870Z,102365.91
2022-08-31T06:26:39.938Z,102356.06
2022-08-31T06:29:51.669Z,102357.59
2022-08-31T06:32:58.343Z,102360.94
2022-08-31T06:36:08.677Z,102360.56
2022-08-31T06:39:32.849Z,102365.38
2022-08-31T06:42:48.835Z,102365.44
2022-08-31T06:46:22.830Z,102366.03
2022-08-31T06:49:35.961Z,102362.38
2022-08-31T06:52:39.081Z,102365.53
2022-08-31T06:55:55.475Z,102368.78
2022-08-31T06:59:16.320Z,102366.53
2022-08-31T07:02:31.473Z,102368.06
2022-08-31T07:05:33.502Z,102375.97
2022-08-31T07:08:36.905Z,102380.31
2022-08-31T07:11:48.101Z,102384.19
2022-08-31T07:14:55.347Z,102382.72
2022-08-31T07:17:59.276Z,102392.59
2022-08-31T07:21:14.589Z,102382.03
2022-08-31T07:24:20.111Z,102391.97
2022-08-31T07:27:22.187Z,102391.84
2022-08-31T07:30:33.494Z,102384.75
2022-08-31T07:33:37.419Z,102391.09
2022-08-31T07:36:42.053Z,102395.28
2022-08-31T07:39:54.314Z,102393.78
2022-08-31T07:42:59.752Z,102392.72
2022-08-31T07:46:03.523Z,102393.78
2022-08-31T07:49:07.745Z,102390.88
2022-08-31T07:52:10.115Z,102393.72
2022-08-31T07:55:36.301Z,102382.28
2022-08-31T07:58:42.427Z,102383.88
2022-08-31T08:01:46.817Z,102381.81
2022-08-31T08:04:50.136Z,102387.06
2022-08-31T08:08:13.882Z,102385.63
2022-08-31T08:11:30.998Z,102388.38
2022-08-31T08:14:41.589Z,102384.84
2022-08-31T08:17:56.733Z,102385.69
2022-08-31T08:21:02.712Z,102387.56
2022-08-31T08:24:05.063Z,102389.72
2022-08-31T08:27:33.544Z,102384.50
2022-08-31T08:30:54.542Z,102392.28
2022-08-31T08:33:58.351Z,102385.94
2022-08-31T08:37:00.991Z,102395.56
2022-08-31T08:40:04.078Z,102389.56
2022-08-31T08:43:19.680Z,102388.28
2022-08-31T08:46:41.520Z,102400.03
2022-08-31T08:49:54.455Z,102380.22
2022-08-31T08:53:00.591Z,102390.03
2022-08-31T08:56:17.446Z,102393.63
2022-08-31T08:59:25.552Z,102392.31
2022-08-31T09:03:05.702Z,102383.84
2022-08-31T09:07:05.777Z,102393.84
2022-08-31T09:10:13.752Z,102397.31
2022-08-31T09:13:49.719Z,102394.03
2022-08-31T09:17:12.646Z,102399.00
2022-08-31T09:20:15.148Z,102408.88
2022-08-31T09:23:17.499Z,102407.00
2022-08-31T09:26:21.140Z,102409.28
2022-08-31T09:29:41.449Z,102396.88
2022-08-31T09:32:56.237Z,102404.06
2022-08-31T09:36:19.966Z,102397.81
2022-08-31T09:39:33.034Z,102400.50
2022-08-31T09:42:39.396Z,102398.00
2022-08-31T09:45:53.317Z,102403.41
2022-08-31T09:48:57.739Z,102399.34
2022-08-31T09:52:20.807Z,102396.22
2022-08-31T09:55:25.193Z,102397.16
2022-08-31T09:58:27.185Z,102397.94
2022-08-31T10:01:35.856Z,102403.75
2022-08-31T10:04:49.049Z,102395.69
2022-08-31T10:07:59.587Z,102392.69
2022-08-31T10:11:08.690Z,102402.25
2022-08-31T10:14:28.052Z,102388.56
2022-08-31T10:17:40.447Z,102381.59
2022-08-31T10:21:04.219Z,102374.53
2022-08-31T10:24:20.118Z,102382.34
2022-08-31T10:27:29.508Z,102374.28
2022-08-31T10:30:36.574Z,102370.19
2022-08-31T10:33:48.727Z,102370.16
2022-08-31T10:36:58.806Z,102364.97
2022-08-31T10:40:08.007Z,102366.34
2022-08-31T10:43:16.177Z,102365.88
2022-08-31T10:46:18.285Z,102364.81
2022-08-31T10:49:23.745Z,102361.09
2022-08-31T10:52:33.040Z,102351.03
2022-08-31T10:55:51.125Z,102357.63
2022-08-31T10:59:28.931Z,102367.69
2022-08-31T11:02:45.330Z,102350.66
2022-08-31T11:05:58.866Z,102360.63
2022-08-31T11:09:23.080Z,102361.13
2022-08-31T11:12:31.143Z,102363.13
2022-08-31T11:16:13.125Z,102369.13
2022-08-31T11:19:48.230Z,102370.09
2022-08-31T11:23:26.934Z,102361.81
2022-08-31T11:26:47.819Z,102355.44
2022-08-31T11:29:54.029Z,102344.13
2022-08-31T11:33:10.784Z,102353.34
2022-08-31T11:36:32.838Z,102352.69
2022-08-31T11:39:38.075Z,102353.47
2022-08-31T11:42:40.040Z,102344.13
2022-08-31T11:45:43.146Z,102331.56
2022-08-31T11:48:51.192Z,102340.53
2022-08-31T11:51:53.873Z,102336.38
2022-08-31T11:55:00.825Z,102336.63
2022-08-31T11:58:02.800Z,102334.25
2022-08-31T12:01:33.432Z,102320.38
2022-08-31T12:04:35.389Z,102324.19
2022-08-31T12:07:44.938Z,102327.63
2022-08-31T12:11:06.931Z,102320.28
2022-08-31T12:14:23.216Z,102319.56
2022-08-31T12:17:56.129Z,102322.09
2022-08-31T12:21:22.887Z,102306.50
2022-08-31T12:24:37.837Z,102303.53
2022-08-31T12:28:13.703Z,102306.06
2022-08-31T12:31:18.361Z,102288.91
2022-08-31T12:34:23.656Z,102294.63
2022-08-31T12:37:33.582Z,102286.13
2022-08-31T12:40:44.247Z,102290.88
2022-08-31T12:43:48.473Z,102283.38
2022-08-31T12:47:29.794Z,102282.75
2022-08-31T12:50:37.321Z,102278.38
2022-08-31T12:53:54.812Z,102276.06
2022-08-31T12:57:29.986Z,102266.41
2022-08-31T13:00:37.760Z,102273.31
2022-08-31T13:03:44.414Z,102267.41
2022-08-31T13:06:46.997Z,102267.91
2022-08-31T13:10:07.555Z,102263.47
2022-08-31T13:13:21.476Z,102273.03
2022-08-31T13:16:23.576Z,102259.06
2022-08-31T13:19:32.584Z,102247.16
2022-08-31T13:22:37.591Z,102256.19
2022-08-31T13:25:40.132Z,102255.72
2022-08-31T13:28:42.139Z,102240.03
2022-08-31T13:31:50.887Z,102255.00
2022-08-31T13:34:52.924Z,102239.22
2022-08-31T13:38:00.646Z,102233.78
2022-08-31T13:41:02.754Z,102234.84
2022-08-31T13:44:10.892Z,102235.78
2022-08-31T13:47:20.299Z,102223.97
2022-08-31T13:50:25.421Z,102227.56
2022-08-31T13:53:44.299Z,102228.25
2022-08-31T13:56:46.300Z,102237.75
2022-08-31T13:59:48.863Z,102229.03
2022-08-31T14:02:51.034Z,102226.03
2022-08-31T14:05:53.260Z,102224.03
2022-08-31T14:09:02.519Z,102230.19
2022-08-31T14:12:04.669Z,102228.72
2022-08-31T14:15:15.500Z,102220.09
2022-08-31T14:18:28.183Z,102223.06
2022-08-31T14:21:34.942Z,102228.69
2022-08-31T14:24:36.966Z,102212.59
2022-08-31T14:27:41.781Z,102219.22
2022-08-31T14:30:44.027Z,102214.44
2022-08-31T14:33:46.165Z,102204.75
2022-08-31T14:36:52.234Z,102223.75
2022-08-31T14:39:54.549Z,102211.00
2022-08-31T14:42:56.607Z,102210.31
2022-08-31T14:45:58.717Z,102209.38
2022-08-31T14:49:00.741Z,102214.13
2022-08-31T14:52:03.948Z,102206.22
2022-08-31T14:55:06.387Z,102199.09
2022-08-31T14:58:14.960Z,102201.97
2022-08-31T15:01:17.191Z,102200.84
2022-08-31T15:04:20.507Z,102189.56
2022-08-31T15:07:22.508Z,102186.88
2022-08-31T15:10:25.926Z,102199.00
2022-08-31T15:13:28.523Z,102202.28
2022-08-31T15:16:33.418Z,102195.34
2022-08-31T15:19:35.461Z,102202.28
2022-08-31T15:22:37.492Z,102204.00
2022-08-31T15:25:39.538Z,102192.72
2022-08-31T15:28:41.771Z,102196.19
2022-08-31T15:31:47.763Z,102189.88
2022-08-31T15:34:49.979Z,102182.94
2022-08-31T15:37:55.268Z,102193.25
2022-08-31T15:40:57.390Z,102189.56
2022-08-31T15:43:59.488Z,102193.50
2022-08-31T15:47:02.049Z,102192.41
2022-08-31T15:50:04.283Z,102190.44
2022-08-31T15:53:09.428Z,102191.72
2022-08-31T15:56:12.065Z,102185.75
2022-08-31T15:59:14.078Z,102189.75
2022-08-31T16:02:17.134Z,102183.22
2022-08-31T16:05:19.319Z,102185.09
2022-08-31T16:08:21.692Z,102180.91
2022-08-31T16:11:26.365Z,102185.75
2022-08-31T16:14:29.314Z,102183.44
2022-08-31T16:17:31.382Z,102179.63
2022-08-31T16:20:34.041Z,102177.78
2022-08-31T16:23:36.077Z,102171.88
2022-08-31T16:26:40.993Z,102165.09
2022-08-31T16:29:44.021Z,102163.19
2022-08-31T16:32:50.407Z,102167.63
2022-08-31T16:35:54.172Z,102170.09
2022-08-31T16:38:56.810Z,102169.75
2022-08-31T16:41:58.865Z,102172.28
2022-08-31T16:45:02.501Z,102174.44
2022-08-31T16:48:07.796Z,102167.69
2022-08-31T16:51:11.643Z,102160.28
2022-08-31T16:54:13.653Z,102166.63
2022-08-31T16:57:20.972Z,102164.47
2022-08-31T17:00:27.387Z,102173.66
2022-08-31T17:03:33.366Z,102182.25
2022-08-31T17:06:37.907Z,102170.44
2022-08-31T17:09:44.473Z,102167.16
2022-08-31T17:12:46.509Z,102169.56
2022-08-31T17:15:48.535Z,102175.13
2022-08-31T17:18:52.675Z,102178.66
2022-08-31T17:21:54.685Z,102174.41
2022-08-31T17:24:56.714Z,102174.81
2022-08-31T17:28:00.445Z,102182.00
2022-08-31T17:31:03.785Z,102182.84
2022-08-31T17:34:05.795Z,102180.09
2022-08-31T17:37:11.437Z,102178.19
2022-08-31T17:40:13.526Z,102188.84
2022-08-31T17:43:15.646Z,102179.88
2022-08-31T17:46:17.710Z,102183.03
2022-08-31T17:49:21.882Z,102188.97
2022-08-31T17:52:23.900Z,102191.41
2022-08-31T17:55:25.933Z,102195.69
2022-08-31T17:58:28.060Z,102194.50
2022-08-31T18:01:30.092Z,102195.03
2022-08-31T18:04:33.448Z,102194.81
2022-08-31T18:07:35.633Z,102198.94
2022-08-31T18:10:38.104Z,102196.94
2022-08-31T18:13:40.137Z,102195.53
2022-08-31T18:16:46.095Z,102197.00
2022-08-31T18:19:48.676Z,102198.44
2022-08-31T18:22:52.567Z,102200.78
2022-08-31T18:25:54.570Z,102204.88
2022-08-31T18:28:57.359Z,102212.59
2022-08-31T18:32:00.476Z,102218.28
2022-08-31T18:35:04.349Z,102219.56
2022-08-31T18:38:06.364Z,102228.78
2022-08-31T18:41:08.432Z,102223.72
2022-08-31T18:44:10.800Z,102228.47
2022-08-31T18:47:13.776Z,102228.91
2022-08-31T18:50:16.208Z,102230.28
2022-08-31T18:53:28.771Z,102224.91
2022-08-31T18:56:32.522Z,102236.59
2022-08-31T18:59:34.705Z,102242.91
2022-08-31T19:02:38.229Z,102236.81
2022-08-31T19:05:40.597Z,102235.31
2022-08-31T19:08:42.611Z,102246.53
2022-08-31T19:11:44.637Z,102241.59
2022-08-31T19:14:48.686Z,102248.75
2022-08-31T19:17:50.753Z,102255.91
2022-08-31T19:20:52.954Z,102253.44
2022-08-31T19:23:56.880Z,102249.91
2022-08-31T19:27:02.496Z,102252.63
2022-08-31T19:30:05.987Z,102249.97
2022-08-31T19:33:08.073Z,102254.25
2022-08-31T19:36:10.842Z,102246.31
2022-08-31T19:39:18.832Z,102246.13
2022-08-31T19:42:20.929Z,102245.16
2022-08-31T19:45:24.747Z,102253.97
2022-08-31T19:48:26.932Z,102260.81
2022-08-31T19:51:30.224Z,102257.38
2022-08-31T19:54:35.642Z,102258.34
2022-08-31T19:57:37.933Z,102267.13
2022-08-31T20:00:40.048Z,102268.25
2022-08-31T20:03:42.160Z,102273.59
2022-08-31T20:06:45.574Z,102275.28
2022-08-31T20:09:47.680Z,102278.75
2022-08-31T20:12:49.705Z,102276.94
2022-08-31T20:15:55.739Z,102277.03
2022-08-31T20:18:57.797Z,102277.97
2022-08-31T20:21:59.821Z,102284.41
2022-08-31T20:25:02.225Z,102289.84
2022-08-31T20:28:04.268Z,102290.13
2022-08-31T20:31:08.676Z,102286.91
2022-08-31T20:34:18.521Z,102280.69
2022-08-31T20:37:20.909Z,102291.72
2022-08-31T20:40:22.973Z,102295.34
2022-08-31T20:43:25.227Z,102290.22
2022-08-31T20:46:27.853Z,102284.06
2022-08-31T20:49:33.788Z,102288.63
2022-08-31T20:52:35.993Z,102284.38
2022-08-31T20:55:38.040Z,102290.72
2022-08-31T20:58:40.118Z,102286.50
2022-08-31T21:01:42.178Z,102286.47
2022-08-31T21:04:44.291Z,102288.34
2022-08-31T21:07:46.388Z,102292.97
2022-08-31T21:10:48.637Z,102280.69
2022-08-31T21:13:50.934Z,102287.00
2022-08-31T21:16:53.922Z,102290.53
2022-08-31T21:19:55.960Z,102280.09
2022-08-31T21:22:57.990Z,102280.16
2022-08-31T21:26:00.069Z,102279.44
2022-08-31T21:29:02.686Z,102284.06
2022-08-31T21:32:07.937Z,102286.06
2022-08-31T21:35:11.706Z,102286.97
2022-08-31T21:38:13.744Z,102286.13
2022-08-31T21:41:16.013Z,102282.75
2022-08-31T21:44:19.628Z,102284.53
2022-08-31T21:47:21.676Z,102281.22
2022-08-31T21:50:26.305Z,102287.59
2022-08-31T21:53:28.366Z,102285.75
2022-08-31T21:56:32.624Z,102286.75
2022-08-31T21:59:36.226Z,102287.59
2022-08-31T22:02:38.310Z,102287.03
2022-08-31T22:05:41.454Z,102289.66
2022-08-31T22:08:43.494Z,102287.03
2022-08-31T22:11:47.423Z,102281.78
2022-08-31T22:14:49.457Z,102286.25
2022-08-31T22:18:11.519Z,102292.41
2022-08-31T22:21:17.743Z,102294.28
2022-08-31T22:24:27.551Z,102289.88
2022-08-31T22:27:29.966Z,102290.91
2022-08-31T22:30:33.930Z,102298.91
2022-08-31T22:33:36.787Z,102297.22
2022-08-31T22:36:38.820Z,102292.94
2022-08-31T22:39:41.036Z,102296.63
2022-08-31T22:42:47.670Z,102302.09
2022-08-31T22:45:49.786Z,102295.19
2022-08-31T22:48:51.845Z,102296.97
2022-08-31T22:51:54.372Z,102302.44
2022-08-31T22:54:56.424Z,102296.31
2022-08-31T22:57:58.437Z,102291.41
2022-08-31T23:01:00.442Z,102294.19
2022-08-31T23:04:05.619Z,102291.66
2022-08-31T23:07:07.623Z,102292.78
2022-08-31T23:10:11.535Z,102294.56
2022-08-31T23:13:13.600Z,102287.66
2022-08-31T23:16:15.682Z,102286.00
2022-08-31T23:19:20.131Z,102277.13
2022-08-31T23:22:24.725Z,102273.66
2022-08-31T23:25:26.917Z,102271.19
2022-08-31T23:28:28.955Z,102272.25
2022-08-31T23:31:31.239Z,102262.66
2022-08-31T23:34:39.660Z,102265.44
2022-08-31T23:37:41.753Z,102262.19
2022-08-31T23:40:43.834Z,102265.78
2022-08-31T23:43:46.233Z,102257.88
2022-08-31T23:46:49.128Z,102255.31
2022-08-31T23:49:52.247Z,102251.81
2022-08-31T23:52:54.247Z,102249.19
2022-08-31T23:55:56.258Z,102254.63
2022-08-31T23:58:59.904Z,102260.84
